sensor_id;sensor_type;location;lat;lon;timestamp;P1;durP1;ratioP1;P2;durP2;ratioP2
19804;SDS011;10062;51.052;13.756;2023-02-28T00:01:39;11.33;;;4.97;;
19804;SDS011;10062;51.052;13.756;2023-02-28T00:04:11;9.07;;;5.30;;
19804;SDS011;10062;51.052;13.756;2023-02-28T00:06:43;9.80;;;4.07;;
19804;SDS011;10062;51.052;13.756;2023-02-28T00:09:14;7.17;;;3.90;;
19804;SDS011;10062;51.052;13.756;2023-02-28T00:11:46;8.33;;;4.50;;
19804;SDS011;10062;51.052;13.756;2023-02-28T00:14:19;7.90;;;3.67;;
19804;SDS011;10062;51.052;13.756;2023-02-28T00:16:50;6.10;;;3.40;;
19804;SDS011;10062;51.052;13.756;2023-02-28T00:19:22;11.47;;;4.50;;
19804;SDS011;10062;51.052;13.756;2023-02-28T00:21:54;8.60;;;4.53;;
19804;SDS011;10062;51.052;13.756;2023-02-28T00:24:25;9.37;;;5.07;;
19804;SDS011;10062;51.052;13.756;2023-02-28T00:26:57;10.17;;;4.53;;
19804;SDS011;10062;51.052;13.756;2023-02-28T00:29:30;7.40;;;4.03;;
19804;SDS011;10062;51.052;13.756;2023-02-28T00:32:01;7.77;;;4.23;;
19804;SDS011;10062;51.052;13.756;2023-02-28T00:34:34;8.40;;;3.80;;
19804;SDS011;10062;51.052;13.756;2023-02-28T00:37:08;12.70;;;4.07;;
19804;SDS011;10062;51.052;13.756;2023-02-28T00:39:42;6.93;;;4.27;;
19804;SDS011;10062;51.052;13.756;2023-02-28T00:42:13;9.33;;;4.80;;
19804;SDS011;10062;51.052;13.756;2023-02-28T00:44:46;9.80;;;5.00;;
19804;SDS011;10062;51.052;13.756;2023-02-28T00:47:18;18.40;;;5.77;;
19804;SDS011;10062;51.052;13.756;2023-02-28T00:49:50;11.10;;;6.10;;
19804;SDS011;10062;51.052;13.756;2023-02-28T00:52:21;10.97;;;5.37;;
19804;SDS011;10062;51.052;13.756;2023-02-28T00:54:53;9.17;;;4.70;;
19804;SDS011;10062;51.052;13.756;2023-02-28T00:57:25;8.40;;;4.53;;
19804;SDS011;10062;51.052;13.756;2023-02-28T00:59:58;12.57;;;4.77;;
19804;SDS011;10062;51.052;13.756;2023-02-28T01:02:31;10.33;;;5.10;;
19804;SDS011;10062;51.052;13.756;2023-02-28T01:05:03;10.20;;;5.63;;
19804;SDS011;10062;51.052;13.756;2023-02-28T01:07:35;8.57;;;4.57;;
19804;SDS011;10062;51.052;13.756;2023-02-28T01:10:07;9.80;;;5.60;;
19804;SDS011;10062;51.052;13.756;2023-02-28T01:12:40;10.73;;;5.03;;
19804;SDS011;10062;51.052;13.756;2023-02-28T01:15:13;8.60;;;5.07;;
19804;SDS011;10062;51.052;13.756;2023-02-28T01:17:45;9.70;;;5.07;;
19804;SDS011;10062;51.052;13.756;2023-02-28T01:20:16;11.73;;;4.90;;
19804;SDS011;10062;51.052;13.756;2023-02-28T01:22:48;8.43;;;4.30;;
19804;SDS011;10062;51.052;13.756;2023-02-28T01:25:20;11.10;;;4.60;;
19804;SDS011;10062;51.052;13.756;2023-02-28T01:27:52;8.27;;;4.67;;
19804;SDS011;10062;51.052;13.756;2023-02-28T01:30:25;10.97;;;5.07;;
19804;SDS011;10062;51.052;13.756;2023-02-28T01:32:56;9.33;;;5.00;;
19804;SDS011;10062;51.052;13.756;2023-02-28T01:35:31;10.30;;;4.87;;
19804;SDS011;10062;51.052;13.756;2023-02-28T01:38:03;8.40;;;4.83;;
19804;SDS011;10062;51.052;13.756;2023-02-28T01:40:35;8.47;;;4.57;;
19804;SDS011;10062;51.052;13.756;2023-02-28T01:43:09;8.83;;;4.37;;
19804;SDS011;10062;51.052;13.756;2023-02-28T01:45:52;11.97;;;4.83;;
19804;SDS011;10062;51.052;13.756;2023-02-28T01:48:25;9.43;;;4.50;;
19804;SDS011;10062;51.052;13.756;2023-02-28T01:51:00;8.37;;;4.47;;
19804;SDS011;10062;51.052;13.756;2023-02-28T01:53:37;9.50;;;4.90;;
19804;SDS011;10062;51.052;13.756;2023-02-28T01:56:16;10.13;;;4.30;;
19804;SDS011;10062;51.052;13.756;2023-02-28T01:58:53;7.50;;;4.13;;
19804;SDS011;10062;51.052;13.756;2023-02-28T02:01:28;8.23;;;4.53;;
19804;SDS011;10062;51.052;13.756;2023-02-28T02:04:02;11.03;;;4.87;;
19804;SDS011;10062;51.052;13.756;2023-02-28T02:06:35;8.70;;;4.97;;
19804;SDS011;10062;51.052;13.756;2023-02-28T02:09:12;7.80;;;4.50;;
19804;SDS011;10062;51.052;13.756;2023-02-28T02:11:44;8.03;;;4.83;;
19804;SDS011;10062;51.052;13.756;2023-02-28T02:17:28;10.30;;;5.03;;
19804;SDS011;10062;51.052;13.756;2023-02-28T02:26:44;9.23;;;4.40;;
19804;SDS011;10062;51.052;13.756;2023-02-28T02:32:46;9.83;;;5.20;;
19804;SDS011;10062;51.052;13.756;2023-02-28T02:35:36;8.23;;;4.80;;
19804;SDS011;10062;51.052;13.756;2023-02-28T02:38:13;10.07;;;4.87;;
19804;SDS011;10062;51.052;13.756;2023-02-28T02:40:53;10.10;;;4.63;;
19804;SDS011;10062;51.052;13.756;2023-02-28T02:43:32;9.50;;;5.40;;
19804;SDS011;10062;51.052;13.756;2023-02-28T02:46:08;9.80;;;5.53;;
19804;SDS011;10062;51.052;13.756;2023-02-28T02:48:48;10.13;;;5.30;;
19804;SDS011;10062;51.052;13.756;2023-02-28T02:51:24;7.73;;;5.13;;
19804;SDS011;10062;51.052;13.756;2023-02-28T02:53:59;8.00;;;4.93;;
19804;SDS011;10062;51.052;13.756;2023-02-28T02:56:36;10.40;;;5.87;;
19804;SDS011;10062;51.052;13.756;2023-02-28T02:59:13;11.80;;;6.20;;
19804;SDS011;10062;51.052;13.756;2023-02-28T03:01:52;12.27;;;5.70;;
19804;SDS011;10062;51.052;13.756;2023-02-28T03:04:27;9.67;;;5.57;;
19804;SDS011;10062;51.052;13.756;2023-02-28T03:07:05;11.87;;;5.70;;
19804;SDS011;10062;51.052;13.756;2023-02-28T03:09:37;10.00;;;5.43;;
19804;SDS011;10062;51.052;13.756;2023-02-28T03:12:11;11.10;;;6.33;;
19804;SDS011;10062;51.052;13.756;2023-02-28T03:14:48;12.27;;;6.43;;
19804;SDS011;10062;51.052;13.756;2023-02-28T03:17:37;14.23;;;6.53;;
19804;SDS011;10062;51.052;13.756;2023-02-28T03:20:28;12.73;;;5.67;;
19804;SDS011;10062;51.052;13.756;2023-02-28T03:23:13;11.53;;;5.87;;
19804;SDS011;10062;51.052;13.756;2023-02-28T03:25:52;11.43;;;6.27;;
19804;SDS011;10062;51.052;13.756;2023-02-28T03:28:30;12.97;;;6.57;;
19804;SDS011;10062;51.052;13.756;2023-02-28T03:31:06;10.57;;;6.03;;
19804;SDS011;10062;51.052;13.756;2023-02-28T03:33:44;11.30;;;6.70;;
19804;SDS011;10062;51.052;13.756;2023-02-28T03:36:25;10.50;;;6.03;;
19804;SDS011;10062;51.052;13.756;2023-02-28T03:39:02;12.53;;;6.70;;
19804;SDS011;10062;51.052;13.756;2023-02-28T03:41:38;11.43;;;6.70;;
19804;SDS011;10062;51.052;13.756;2023-02-28T03:44:16;14.10;;;6.47;;
19804;SDS011;10062;51.052;13.756;2023-02-28T03:46:52;10.53;;;6.60;;
19804;SDS011;10062;51.052;13.756;2023-02-28T03:49:29;10.57;;;6.67;;
19804;SDS011;10062;51.052;13.756;2023-02-28T03:52:04;12.17;;;6.20;;
19804;SDS011;10062;51.052;13.756;2023-02-28T03:54:41;12.20;;;7.50;;
19804;SDS011;10062;51.052;13.756;2023-02-28T03:57:16;14.17;;;6.13;;
19804;SDS011;10062;51.052;13.756;2023-02-28T03:59:54;14.67;;;7.70;;
19804;SDS011;10062;51.052;13.756;2023-02-28T04:02:28;16.57;;;8.07;;
19804;SDS011;10062;51.052;13.756;2023-02-28T04:05:00;19.53;;;9.40;;
19804;SDS011;10062;51.052;13.756;2023-02-28T04:07:32;13.70;;;6.77;;
19804;SDS011;10062;51.052;13.756;2023-02-28T04:10:06;16.20;;;8.00;;
19804;SDS011;10062;51.052;13.756;2023-02-28T04:12:38;13.97;;;6.50;;
19804;SDS011;10062;51.052;13.756;2023-02-28T04:15:10;12.90;;;6.53;;
19804;SDS011;10062;51.052;13.756;2023-02-28T04:17:42;14.13;;;6.73;;
19804;SDS011;10062;51.052;13.756;2023-02-28T04:20:13;17.37;;;7.20;;
19804;SDS011;10062;51.052;13.756;2023-02-28T04:22:45;15.27;;;6.90;;
19804;SDS011;10062;51.052;13.756;2023-02-28T04:25:18;14.33;;;7.47;;
19804;SDS011;10062;51.052;13.756;2023-02-28T04:27:49;12.67;;;7.03;;
19804;SDS011;10062;51.052;13.756;2023-02-28T04:30:21;17.70;;;8.13;;
19804;SDS011;10062;51.052;13.756;2023-02-28T04:32:53;10.50;;;5.93;;
19804;SDS011;10062;51.052;13.756;2023-02-28T04:35:24;15.20;;;7.83;;
19804;SDS011;10062;51.052;13.756;2023-02-28T04:37:56;17.33;;;8.70;;
19804;SDS011;10062;51.052;13.756;2023-02-28T04:40:29;15.80;;;7.17;;
19804;SDS011;10062;51.052;13.756;2023-02-28T04:43:00;12.97;;;7.70;;
19804;SDS011;10062;51.052;13.756;2023-02-28T04:45:33;14.20;;;7.17;;
19804;SDS011;10062;51.052;13.756;2023-02-28T04:48:06;15.17;;;8.50;;
19804;SDS011;10062;51.052;13.756;2023-02-28T04:50:37;20.23;;;8.23;;
19804;SDS011;10062;51.052;13.756;2023-02-28T04:53:09;15.57;;;7.73;;
19804;SDS011;10062;51.052;13.756;2023-02-28T04:55:42;15.30;;;8.20;;
19804;SDS011;10062;51.052;13.756;2023-02-28T04:58:14;14.27;;;7.57;;
19804;SDS011;10062;51.052;13.756;2023-02-28T05:00:46;14.27;;;8.00;;
19804;SDS011;10062;51.052;13.756;2023-02-28T05:03:17;16.13;;;8.57;;
19804;SDS011;10062;51.052;13.756;2023-02-28T05:05:50;15.93;;;9.20;;
19804;SDS011;10062;51.052;13.756;2023-02-28T05:08:23;16.23;;;7.23;;
19804;SDS011;10062;51.052;13.756;2023-02-28T05:10:56;15.00;;;7.67;;
19804;SDS011;10062;51.052;13.756;2023-02-28T05:13:28;14.43;;;7.73;;
19804;SDS011;10062;51.052;13.756;2023-02-28T05:16:00;18.83;;;8.27;;
19804;SDS011;10062;51.052;13.756;2023-02-28T05:18:32;19.07;;;8.43;;
19804;SDS011;10062;51.052;13.756;2023-02-28T05:21:03;16.40;;;7.70;;
19804;SDS011;10062;51.052;13.756;2023-02-28T05:23:36;17.97;;;9.27;;
19804;SDS011;10062;51.052;13.756;2023-02-28T05:26:09;19.30;;;10.53;;
19804;SDS011;10062;51.052;13.756;2023-02-28T05:28:41;14.80;;;8.60;;
19804;SDS011;10062;51.052;13.756;2023-02-28T05:31:13;21.47;;;12.13;;
19804;SDS011;10062;51.052;13.756;2023-02-28T05:33:45;17.83;;;9.83;;
19804;SDS011;10062;51.052;13.756;2023-02-28T05:36:17;16.10;;;7.87;;
19804;SDS011;10062;51.052;13.756;2023-02-28T05:38:49;17.73;;;8.87;;
19804;SDS011;10062;51.052;13.756;2023-02-28T05:41:23;19.83;;;9.60;;
19804;SDS011;10062;51.052;13.756;2023-02-28T05:43:56;19.37;;;8.50;;
19804;SDS011;10062;51.052;13.756;2023-02-28T05:46:29;16.23;;;8.60;;
19804;SDS011;10062;51.052;13.756;2023-02-28T05:49:01;15.93;;;8.77;;
19804;SDS011;10062;51.052;13.756;2023-02-28T05:51:33;19.70;;;8.77;;
19804;SDS011;10062;51.052;13.756;2023-02-28T05:54:06;20.37;;;9.90;;
19804;SDS011;10062;51.052;13.756;2023-02-28T05:56:39;18.57;;;9.53;;
19804;SDS011;10062;51.052;13.756;2023-02-28T05:59:14;15.17;;;8.77;;
19804;SDS011;10062;51.052;13.756;2023-02-28T06:01:45;16.50;;;8.20;;
19804;SDS011;10062;51.052;13.756;2023-02-28T06:04:19;20.50;;;9.80;;
19804;SDS011;10062;51.052;13.756;2023-02-28T06:06:51;18.87;;;9.83;;
19804;SDS011;10062;51.052;13.756;2023-02-28T06:09:23;14.00;;;8.07;;
19804;SDS011;10062;51.052;13.756;2023-02-28T06:11:58;17.93;;;9.73;;
19804;SDS011;10062;51.052;13.756;2023-02-28T06:14:30;15.03;;;8.30;;
19804;SDS011;10062;51.052;13.756;2023-02-28T06:17:02;16.17;;;9.13;;
19804;SDS011;10062;51.052;13.756;2023-02-28T06:19:36;18.80;;;9.30;;
19804;SDS011;10062;51.052;13.756;2023-02-28T06:22:08;15.17;;;8.77;;
19804;SDS011;10062;51.052;13.756;2023-02-28T06:24:40;20.27;;;10.93;;
19804;SDS011;10062;51.052;13.756;2023-02-28T06:27:13;16.53;;;9.80;;
19804;SDS011;10062;51.052;13.756;2023-02-28T06:29:45;21.20;;;10.00;;
19804;SDS011;10062;51.052;13.756;2023-02-28T06:32:17;21.97;;;10.20;;
19804;SDS011;10062;51.052;13.756;2023-02-28T06:34:49;18.03;;;10.03;;
19804;SDS011;10062;51.052;13.756;2023-02-28T06:37:23;21.47;;;9.77;;
19804;SDS011;10062;51.052;13.756;2023-02-28T06:39:57;16.50;;;9.73;;
19804;SDS011;10062;51.052;13.756;2023-02-28T06:42:30;15.97;;;9.80;;
19804;SDS011;10062;51.052;13.756;2023-02-28T06:45:02;16.93;;;9.10;;
19804;SDS011;10062;51.052;13.756;2023-02-28T06:47:40;18.43;;;10.20;;
19804;SDS011;10062;51.052;13.756;2023-02-28T06:50:12;15.83;;;8.60;;
19804;SDS011;10062;51.052;13.756;2023-02-28T06:52:44;18.73;;;9.33;;
19804;SDS011;10062;51.052;13.756;2023-02-28T06:55:16;19.50;;;9.93;;
19804;SDS011;10062;51.052;13.756;2023-02-28T06:57:49;17.63;;;8.90;;
19804;SDS011;10062;51.052;13.756;2023-02-28T07:00:21;21.83;;;8.60;;
19804;SDS011;10062;51.052;13.756;2023-02-28T07:02:53;14.80;;;9.10;;
19804;SDS011;10062;51.052;13.756;2023-02-28T07:05:25;14.83;;;8.33;;
19804;SDS011;10062;51.052;13.756;2023-02-28T07:07:57;17.47;;;9.57;;
19804;SDS011;10062;51.052;13.756;2023-02-28T07:10:28;20.97;;;9.33;;
19804;SDS011;10062;51.052;13.756;2023-02-28T07:13:03;15.07;;;7.93;;
19804;SDS011;10062;51.052;13.756;2023-02-28T07:15:35;20.80;;;8.90;;
19804;SDS011;10062;51.052;13.756;2023-02-28T07:18:07;16.40;;;8.80;;
19804;SDS011;10062;51.052;13.756;2023-02-28T07:20:39;14.63;;;9.00;;
19804;SDS011;10062;51.052;13.756;2023-02-28T07:23:11;18.13;;;8.93;;
19804;SDS011;10062;51.052;13.756;2023-02-28T07:25:42;19.70;;;9.00;;
19804;SDS011;10062;51.052;13.756;2023-02-28T07:28:16;16.67;;;8.80;;
19804;SDS011;10062;51.052;13.756;2023-02-28T07:30:49;18.63;;;9.47;;
19804;SDS011;10062;51.052;13.756;2023-02-28T07:33:21;16.43;;;8.10;;
19804;SDS011;10062;51.052;13.756;2023-02-28T07:35:59;18.80;;;8.93;;
19804;SDS011;10062;51.052;13.756;2023-02-28T07:38:33;16.53;;;8.60;;
19804;SDS011;10062;51.052;13.756;2023-02-28T07:41:05;17.40;;;8.77;;
19804;SDS011;10062;51.052;13.756;2023-02-28T07:43:39;20.00;;;10.30;;
19804;SDS011;10062;51.052;13.756;2023-02-28T07:46:12;16.93;;;8.70;;
19804;SDS011;10062;51.052;13.756;2023-02-28T07:48:46;16.20;;;8.00;;
19804;SDS011;10062;51.052;13.756;2023-02-28T07:51:18;18.17;;;8.80;;
19804;SDS011;10062;51.052;13.756;2023-02-28T07:53:50;13.13;;;8.80;;
19804;SDS011;10062;51.052;13.756;2023-02-28T07:56:22;19.20;;;8.33;;
19804;SDS011;10062;51.052;13.756;2023-02-28T07:58:55;14.27;;;8.07;;
19804;SDS011;10062;51.052;13.756;2023-02-28T08:01:27;17.97;;;8.50;;
19804;SDS011;10062;51.052;13.756;2023-02-28T08:04:00;15.70;;;9.27;;
19804;SDS011;10062;51.052;13.756;2023-02-28T08:06:32;15.23;;;8.03;;
19804;SDS011;10062;51.052;13.756;2023-02-28T08:09:04;15.43;;;8.83;;
19804;SDS011;10062;51.052;13.756;2023-02-28T08:11:36;14.70;;;7.97;;
19804;SDS011;10062;51.052;13.756;2023-02-28T08:14:09;11.20;;;6.80;;
19804;SDS011;10062;51.052;13.756;2023-02-28T08:16:41;18.30;;;9.20;;
19804;SDS011;10062;51.052;13.756;2023-02-28T08:19:13;14.97;;;8.50;;
19804;SDS011;10062;51.052;13.756;2023-02-28T08:21:45;18.07;;;8.77;;
19804;SDS011;10062;51.052;13.756;2023-02-28T08:24:17;15.90;;;7.57;;
19804;SDS011;10062;51.052;13.756;2023-02-28T08:26:49;12.97;;;8.03;;
19804;SDS011;10062;51.052;13.756;2023-02-28T08:29:22;15.73;;;7.87;;
19804;SDS011;10062;51.052;13.756;2023-02-28T08:31:54;17.17;;;8.37;;
19804;SDS011;10062;51.052;13.756;2023-02-28T08:34:25;15.77;;;8.40;;
19804;SDS011;10062;51.052;13.756;2023-02-28T08:36:57;12.33;;;7.33;;
19804;SDS011;10062;51.052;13.756;2023-02-28T08:39:29;12.27;;;7.17;;
19804;SDS011;10062;51.052;13.756;2023-02-28T08:42:00;17.17;;;8.57;;
19804;SDS011;10062;51.052;13.756;2023-02-28T08:44:34;14.80;;;7.50;;
19804;SDS011;10062;51.052;13.756;2023-02-28T08:47:05;16.00;;;8.17;;
19804;SDS011;10062;51.052;13.756;2023-02-28T08:49:37;12.60;;;7.10;;
19804;SDS011;10062;51.052;13.756;2023-02-28T08:52:09;16.50;;;7.73;;
19804;SDS011;10062;51.052;13.756;2023-02-28T08:54:40;14.00;;;6.90;;
19804;SDS011;10062;51.052;13.756;2023-02-28T08:57:12;18.57;;;8.90;;
19804;SDS011;10062;51.052;13.756;2023-02-28T08:59:45;12.53;;;6.97;;
19804;SDS011;10062;51.052;13.756;2023-02-28T09:02:17;13.23;;;7.67;;
19804;SDS011;10062;51.052;13.756;2023-02-28T09:04:49;14.23;;;7.70;;
19804;SDS011;10062;51.052;13.756;2023-02-28T09:07:20;16.97;;;7.60;;
19804;SDS011;10062;51.052;13.756;2023-02-28T09:09:52;15.90;;;7.57;;
19804;SDS011;10062;51.052;13.756;2023-02-28T09:12:27;15.23;;;7.73;;
19804;SDS011;10062;51.052;13.756;2023-02-28T09:15:06;11.43;;;7.93;;
19804;SDS011;10062;51.052;13.756;2023-02-28T09:17:38;18.23;;;9.17;;
19804;SDS011;10062;51.052;13.756;2023-02-28T09:20:11;14.43;;;8.47;;
19804;SDS011;10062;51.052;13.756;2023-02-28T09:22:43;18.20;;;8.60;;
19804;SDS011;10062;51.052;13.756;2023-02-28T09:25:14;17.07;;;8.40;;
19804;SDS011;10062;51.052;13.756;2023-02-28T09:27:46;13.03;;;7.13;;
19804;SDS011;10062;51.052;13.756;2023-02-28T09:30:19;14.53;;;5.80;;
19804;SDS011;10062;51.052;13.756;2023-02-28T09:32:51;12.97;;;7.77;;
19804;SDS011;10062;51.052;13.756;2023-02-28T09:35:23;14.00;;;7.50;;
19804;SDS011;10062;51.052;13.756;2023-02-28T09:37:56;12.80;;;7.63;;
19804;SDS011;10062;51.052;13.756;2023-02-28T09:40:28;13.07;;;7.17;;
19804;SDS011;10062;51.052;13.756;2023-02-28T09:43:00;10.33;;;6.73;;
19804;SDS011;10062;51.052;13.756;2023-02-28T09:45:35;12.13;;;6.60;;
19804;SDS011;10062;51.052;13.756;2023-02-28T09:48:11;14.43;;;7.77;;
19804;SDS011;10062;51.052;13.756;2023-02-28T09:50:46;12.33;;;6.90;;
19804;SDS011;10062;51.052;13.756;2023-02-28T09:53:22;12.57;;;7.13;;
19804;SDS011;10062;51.052;13.756;2023-02-28T09:55:58;14.20;;;7.10;;
19804;SDS011;10062;51.052;13.756;2023-02-28T09:58:33;11.60;;;6.13;;
19804;SDS011;10062;51.052;13.756;2023-02-28T10:01:12;10.63;;;6.83;;
19804;SDS011;10062;51.052;13.756;2023-02-28T10:03:54;11.80;;;6.57;;
19804;SDS011;10062;51.052;13.756;2023-02-28T10:06:28;9.80;;;5.77;;
19804;SDS011;10062;51.052;13.756;2023-02-28T10:09:04;8.67;;;6.30;;
19804;SDS011;10062;51.052;13.756;2023-02-28T10:11:40;10.93;;;5.73;;
19804;SDS011;10062;51.052;13.756;2023-02-28T10:14:13;9.07;;;6.23;;
19804;SDS011;10062;51.052;13.756;2023-02-28T10:16:51;10.87;;;6.73;;
19804;SDS011;10062;51.052;13.756;2023-02-28T10:19:26;13.90;;;6.77;;
19804;SDS011;10062;51.052;13.756;2023-02-28T10:22:03;10.33;;;6.50;;
19804;SDS011;10062;51.052;13.756;2023-02-28T10:24:43;11.33;;;6.80;;
19804;SDS011;10062;51.052;13.756;2023-02-28T10:27:17;10.53;;;7.07;;
19804;SDS011;10062;51.052;13.756;2023-02-28T10:29:50;8.93;;;6.27;;
19804;SDS011;10062;51.052;13.756;2023-02-28T10:32:25;10.43;;;7.50;;
19804;SDS011;10062;51.052;13.756;2023-02-28T10:35:00;10.93;;;7.23;;
19804;SDS011;10062;51.052;13.756;2023-02-28T10:37:38;11.23;;;7.20;;
19804;SDS011;10062;51.052;13.756;2023-02-28T10:40:24;13.17;;;7.80;;
19804;SDS011;10062;51.052;13.756;2023-02-28T10:42:59;14.60;;;8.20;;
19804;SDS011;10062;51.052;13.756;2023-02-28T10:45:32;14.00;;;8.13;;
19804;SDS011;10062;51.052;13.756;2023-02-28T10:48:27;9.93;;;6.17;;
19804;SDS011;10062;51.052;13.756;2023-02-28T10:51:08;13.47;;;7.87;;
19804;SDS011;10062;51.052;13.756;2023-02-28T10:53:45;13.53;;;8.23;;
19804;SDS011;10062;51.052;13.756;2023-02-28T10:56:20;12.23;;;7.13;;
19804;SDS011;10062;51.052;13.756;2023-02-28T10:58:54;13.13;;;8.27;;
19804;SDS011;10062;51.052;13.756;2023-02-28T11:01:34;13.20;;;7.63;;
19804;SDS011;10062;51.052;13.756;2023-02-28T11:04:19;14.03;;;7.70;;
19804;SDS011;10062;51.052;13.756;2023-02-28T11:07:03;13.13;;;7.43;;
19804;SDS011;10062;51.052;13.756;2023-02-28T11:09:37;15.10;;;7.93;;
19804;SDS011;10062;51.052;13.756;2023-02-28T11:12:19;13.13;;;8.13;;
19804;SDS011;10062;51.052;13.756;2023-02-28T11:14:53;15.87;;;8.83;;
19804;SDS011;10062;51.052;13.756;2023-02-28T11:17:28;16.80;;;9.43;;
19804;SDS011;10062;51.052;13.756;2023-02-28T11:20:04;15.93;;;8.27;;
19804;SDS011;10062;51.052;13.756;2023-02-28T11:22:39;12.87;;;7.60;;
19804;SDS011;10062;51.052;13.756;2023-02-28T11:25:19;13.87;;;8.13;;
19804;SDS011;10062;51.052;13.756;2023-02-28T11:27:54;15.17;;;7.73;;
19804;SDS011;10062;51.052;13.756;2023-02-28T11:30:34;11.73;;;8.20;;
19804;SDS011;10062;51.052;13.756;2023-02-28T11:33:23;14.23;;;8.33;;
19804;SDS011;10062;51.052;13.756;2023-02-28T11:36:01;14.37;;;8.10;;
19804;SDS011;10062;51.052;13.756;2023-02-28T11:38:35;16.03;;;8.63;;
19804;SDS011;10062;51.052;13.756;2023-02-28T11:41:14;12.87;;;7.67;;
19804;SDS011;10062;51.052;13.756;2023-02-28T11:43:59;10.27;;;7.47;;
19804;SDS011;10062;51.052;13.756;2023-02-28T11:46:40;9.87;;;5.80;;
19804;SDS011;10062;51.052;13.756;2023-02-28T11:49:21;12.27;;;7.70;;
19804;SDS011;10062;51.052;13.756;2023-02-28T11:52:21;11.97;;;6.53;;
19804;SDS011;10062;51.052;13.756;2023-02-28T11:55:02;12.43;;;7.60;;
19804;SDS011;10062;51.052;13.756;2023-02-28T11:57:48;15.77;;;7.00;;
19804;SDS011;10062;51.052;13.756;2023-02-28T12:00:35;12.07;;;6.90;;
19804;SDS011;10062;51.052;13.756;2023-02-28T12:03:15;12.37;;;6.90;;
19804;SDS011;10062;51.052;13.756;2023-02-28T12:05:55;12.27;;;7.17;;
19804;SDS011;10062;51.052;13.756;2023-02-28T12:08:47;12.30;;;6.60;;
19804;SDS011;10062;51.052;13.756;2023-02-28T12:11:39;14.83;;;7.20;;
19804;SDS011;10062;51.052;13.756;2023-02-28T12:14:32;10.80;;;7.27;;
19804;SDS011;10062;51.052;13.756;2023-02-28T12:17:40;12.70;;;6.90;;
19804;SDS011;10062;51.052;13.756;2023-02-28T12:20:24;15.07;;;6.70;;
19804;SDS011;10062;51.052;13.756;2023-02-28T12:23:09;11.07;;;5.57;;
19804;SDS011;10062;51.052;13.756;2023-02-28T12:25:57;12.13;;;6.30;;
19804;SDS011;10062;51.052;13.756;2023-02-28T12:28:38;11.57;;;8.07;;
19804;SDS011;10062;51.052;13.756;2023-02-28T12:31:14;13.67;;;6.83;;
19804;SDS011;10062;51.052;13.756;2023-02-28T12:33:50;15.20;;;8.30;;
19804;SDS011;10062;51.052;13.756;2023-02-28T12:36:24;13.40;;;8.23;;
19804;SDS011;10062;51.052;13.756;2023-02-28T12:38:58;13.57;;;7.57;;
19804;SDS011;10062;51.052;13.756;2023-02-28T12:41:36;13.40;;;7.50;;
19804;SDS011;10062;51.052;13.756;2023-02-28T12:44:12;12.20;;;7.60;;
19804;SDS011;10062;51.052;13.756;2023-02-28T12:46:48;12.87;;;8.37;;
19804;SDS011;10062;51.052;13.756;2023-02-28T12:49:23;16.57;;;8.03;;
19804;SDS011;10062;51.052;13.756;2023-02-28T12:52:01;13.10;;;8.13;;
19804;SDS011;10062;51.052;13.756;2023-02-28T12:54:36;13.90;;;8.13;;
19804;SDS011;10062;51.052;13.756;2023-02-28T12:57:17;16.20;;;7.53;;
19804;SDS011;10062;51.052;13.756;2023-02-28T12:59:56;13.87;;;7.93;;
19804;SDS011;10062;51.052;13.756;2023-02-28T13:05:31;13.50;;;7.83;;
19804;SDS011;10062;51.052;13.756;2023-02-28T13:08:20;14.27;;;8.90;;
19804;SDS011;10062;51.052;13.756;2023-02-28T13:11:05;15.57;;;8.33;;
19804;SDS011;10062;51.052;13.756;2023-02-28T13:13:38;14.50;;;8.33;;
19804;SDS011;10062;51.052;13.756;2023-02-28T13:16:15;14.83;;;6.37;;
19804;SDS011;10062;51.052;13.756;2023-02-28T13:18:47;15.20;;;9.47;;
19804;SDS011;10062;51.052;13.756;2023-02-28T13:21:23;13.07;;;7.67;;
19804;SDS011;10062;51.052;13.756;2023-02-28T13:23:58;14.20;;;8.30;;
19804;SDS011;10062;51.052;13.756;2023-02-28T13:29:45;13.70;;;7.63;;
19804;SDS011;10062;51.052;13.756;2023-02-28T13:44:15;15.07;;;8.70;;
19804;SDS011;10062;51.052;13.756;2023-02-28T13:53:19;17.90;;;8.90;;
19804;SDS011;10062;51.052;13.756;2023-02-28T13:56:22;20.67;;;8.80;;
19804;SDS011;10062;51.052;13.756;2023-02-28T13:59:04;25.73;;;12.03;;
19804;SDS011;10062;51.052;13.756;2023-02-28T14:01:47;15.77;;;8.83;;
19804;SDS011;10062;51.052;13.756;2023-02-28T14:04:47;14.97;;;7.70;;
19804;SDS011;10062;51.052;13.756;2023-02-28T14:07:30;21.73;;;8.20;;
19804;SDS011;10062;51.052;13.756;2023-02-28T14:10:04;15.33;;;9.17;;
19804;SDS011;10062;51.052;13.756;2023-02-28T14:12:52;17.53;;;10.70;;
19804;SDS011;10062;51.052;13.756;2023-02-28T14:15:39;14.80;;;7.40;;
19804;SDS011;10062;51.052;13.756;2023-02-28T14:18:21;16.63;;;9.83;;
19804;SDS011;10062;51.052;13.756;2023-02-28T14:20:59;15.43;;;8.87;;
19804;SDS011;10062;51.052;13.756;2023-02-28T14:23:38;20.23;;;9.43;;
19804;SDS011;10062;51.052;13.756;2023-02-28T14:26:25;16.77;;;7.80;;
19804;SDS011;10062;51.052;13.756;2023-02-28T14:29:11;16.57;;;9.83;;
19804;SDS011;10062;51.052;13.756;2023-02-28T14:31:57;20.73;;;11.07;;
19804;SDS011;10062;51.052;13.756;2023-02-28T14:34:36;18.63;;;10.90;;
19804;SDS011;10062;51.052;13.756;2023-02-28T14:37:19;18.53;;;9.40;;
19804;SDS011;10062;51.052;13.756;2023-02-28T14:39:57;15.63;;;8.47;;
19804;SDS011;10062;51.052;13.756;2023-02-28T14:42:31;16.23;;;9.67;;
19804;SDS011;10062;51.052;13.756;2023-02-28T14:45:04;20.10;;;9.43;;
19804;SDS011;10062;51.052;13.756;2023-02-28T14:47:36;16.03;;;9.53;;
19804;SDS011;10062;51.052;13.756;2023-02-28T14:50:17;14.47;;;8.67;;
19804;SDS011;10062;51.052;13.756;2023-02-28T14:52:53;17.63;;;7.53;;
19804;SDS011;10062;51.052;13.756;2023-02-28T14:55:28;14.77;;;9.00;;
19804;SDS011;10062;51.052;13.756;2023-02-28T14:58:05;14.73;;;8.83;;
19804;SDS011;10062;51.052;13.756;2023-02-28T15:00:46;13.50;;;7.50;;
19804;SDS011;10062;51.052;13.756;2023-02-28T15:03:21;18.40;;;9.27;;
19804;SDS011;10062;51.052;13.756;2023-02-28T15:05:55;17.67;;;9.03;;
19804;SDS011;10062;51.052;13.756;2023-02-28T15:08:34;18.77;;;7.90;;
19804;SDS011;10062;51.052;13.756;2023-02-28T15:11:07;14.37;;;9.27;;
19804;SDS011;10062;51.052;13.756;2023-02-28T15:13:49;18.53;;;9.67;;
19804;SDS011;10062;51.052;13.756;2023-02-28T15:16:26;14.67;;;8.80;;
19804;SDS011;10062;51.052;13.756;2023-02-28T15:19:05;16.83;;;9.40;;
19804;SDS011;10062;51.052;13.756;2023-02-28T15:21:48;20.83;;;10.43;;
19804;SDS011;10062;51.052;13.756;2023-02-28T15:24:30;19.07;;;9.23;;
19804;SDS011;10062;51.052;13.756;2023-02-28T15:27:10;19.37;;;9.40;;
19804;SDS011;10062;51.052;13.756;2023-02-28T15:29:46;20.83;;;9.77;;
19804;SDS011;10062;51.052;13.756;2023-02-28T15:32:26;16.10;;;9.80;;
19804;SDS011;10062;51.052;13.756;2023-02-28T15:35:17;18.70;;;9.67;;
19804;SDS011;10062;51.052;13.756;2023-02-28T15:37:53;15.77;;;8.63;;
19804;SDS011;10062;51.052;13.756;2023-02-28T15:40:28;17.93;;;9.23;;
19804;SDS011;10062;51.052;13.756;2023-02-28T15:43:04;19.37;;;8.97;;
19804;SDS011;10062;51.052;13.756;2023-02-28T15:45:41;20.20;;;10.87;;
19804;SDS011;10062;51.052;13.756;2023-02-28T15:48:17;18.30;;;9.30;;
19804;SDS011;10062;51.052;13.756;2023-02-28T15:50:51;24.40;;;9.83;;